Orbital elements of FENGYUN 1C DEB
| Launched | 9 May 1999 |
| Flight ended | – |
| Launch site | Taiyuan Space Center, PRC |
| Owner | People's Republic of China |
| NORAD ID | 30392 |
| Date fetched |
Epoch osculation |
Inc. [°] |
Ecc. | RA asc node [hr] |
Arg Peri. [°] |
Mean anom [°] |
Mean motion [rev/day] |
Abs. mag |
| Date fetched |
Epoch osculation |
Inc. [°] |
Ecc. | RA asc node [hr] |
Arg Peri. [°] |
Mean anom [°] |
Mean motion [rev/day] |
Abs. mag |
| 2026 May 04 17:57 | 2026 Apr 30 14:27:40 | 98.7747 | 0.01792 | 9.3617 | 325.5680 | 156.4015 | 14.07804 | – |
| 2026 May 03 17:57 | 2026 Apr 30 14:27:40 | 98.7747 | 0.01792 | 9.3617 | 325.5680 | 156.4015 | 14.07804 | – |
| 2026 May 02 17:57 | 2026 Apr 30 14:27:40 | 98.7747 | 0.01792 | 9.3617 | 325.5680 | 156.4015 | 14.07804 | – |
| 2026 May 01 17:56 | 2026 Apr 30 14:27:40 | 98.7747 | 0.01792 | 9.3617 | 325.5680 | 156.4015 | 14.07804 | – |
| 2026 Apr 30 17:56 | 2026 Apr 30 14:27:40 | 98.7747 | 0.01792 | 9.3617 | 325.5680 | 156.4015 | 14.07804 | – |
| 2026 Apr 29 17:57 | 2026 Apr 24 11:57:43 | 98.7755 | 0.01796 | 8.9659 | 342.8637 | 156.4015 | 14.07804 | – |
| 2026 Apr 28 17:56 | 2026 Apr 24 11:57:43 | 98.7755 | 0.01796 | 8.9659 | 342.8637 | 156.4015 | 14.07804 | – |
| 2026 Apr 27 17:58 | 2026 Apr 24 11:57:43 | 98.7755 | 0.01796 | 8.9659 | 342.8637 | 156.4015 | 14.07804 | – |
| 2026 Apr 26 17:58 | 2026 Apr 24 11:57:43 | 98.7755 | 0.01796 | 8.9659 | 342.8637 | 156.4015 | 14.07804 | – |
| 2026 Apr 25 17:58 | 2026 Apr 24 11:57:43 | 98.7755 | 0.01796 | 8.9659 | 342.8637 | 156.4015 | 14.07804 | – |
| 2026 Apr 24 17:59 | 2026 Apr 24 11:57:43 | 98.7755 | 0.01796 | 8.9659 | 342.8637 | 156.4015 | 14.07804 | – |
| 2026 Apr 23 17:57 | 2026 Apr 19 12:30:36 | 98.7762 | 0.01799 | 8.6431 | 356.9229 | 156.4015 | 14.07804 | – |
| 2026 Apr 22 17:57 | 2026 Apr 19 12:30:36 | 98.7762 | 0.01799 | 8.6431 | 356.9229 | 156.4015 | 14.07804 | – |
| 2026 Apr 21 17:57 | 2026 Apr 19 12:30:36 | 98.7762 | 0.01799 | 8.6431 | 356.9229 | 156.4015 | 14.07804 | – |
| 2026 Apr 20 17:57 | 2026 Apr 19 12:30:36 | 98.7762 | 0.01799 | 8.6431 | 356.9229 | 156.4015 | 14.07804 | – |
| 2026 Apr 19 17:58 | 2026 Apr 19 12:30:36 | 98.7762 | 0.01799 | 8.6431 | 356.9229 | 156.4015 | 14.07804 | – |
| 2026 Apr 18 17:56 | 2026 Apr 13 07:28:19 | 98.7766 | 0.01804 | 8.2403 | 14.4491 | 156.4015 | 14.07804 | – |
| 2026 Apr 16 17:57 | 2026 Apr 13 07:28:19 | 98.7766 | 0.01804 | 8.2403 | 14.4491 | 156.4015 | 14.07804 | – |
| 2026 Apr 14 17:57 | 2026 Apr 13 07:28:19 | 98.7766 | 0.01804 | 8.2403 | 14.4491 | 156.4015 | 14.07804 | – |
| 2026 Apr 13 17:57 | 2026 Apr 13 07:28:19 | 98.7766 | 0.01804 | 8.2403 | 14.4491 | 156.4015 | 14.07804 | – |
| 2026 Apr 12 17:57 | 2026 Apr 08 12:10:11 | 98.7767 | 0.01808 | 7.9288 | 27.9629 | 156.4015 | 14.07804 | – |
| 2026 Apr 11 17:57 | 2026 Apr 08 12:10:11 | 98.7767 | 0.01808 | 7.9288 | 27.9629 | 156.4015 | 14.07804 | – |
| 2026 Apr 10 17:58 | 2026 Apr 08 12:10:11 | 98.7767 | 0.01808 | 7.9288 | 27.9629 | 156.4015 | 14.07804 | – |
| 2026 Apr 09 18:01 | 2026 Apr 08 12:10:11 | 98.7767 | 0.01808 | 7.9288 | 27.9629 | 156.4015 | 14.07804 | – |
| 2026 Apr 08 17:57 | 2026 Apr 08 12:10:11 | 98.7767 | 0.01808 | 7.9288 | 27.9629 | 156.4015 | 14.07804 | – |
| 2026 Apr 07 17:57 | 2026 Apr 02 07:03:53 | 98.7781 | 0.01812 | 7.5259 | 45.4213 | 156.4015 | 14.07804 | – |